Portada
METAR-TAF:

METAR-TAF

Aeroports :

Taïf, Aràbia Saudita

latitud: 21-29N, longitud: 040-33E, altitud: 1478 m

Observació

L'informe es va fer fa 24 minuts, a les 02:00 UTC
Vent 6 kt del Sud
Temperatura 25°C
Humitat 14%
Pressió 1019 hPa
Visibilitat: 9000 m

METAR: OETF 130200Z 19006KT 9000 NSC 25/M04 Q1019 NOSIG

Hora: 05:24 (02:24 UTC)

Pronòstic

L'informe es va fer fa 3 hores i 24 minuts, a les 23:00 UTC
Pronòstic vàlid del 13 a les 00 UTC al 14 a les 06 UTC
Vent 10 kt del Sud
Visibilitat: 5000 m
Pols estès
Evolucionant progressivament
l' 13 a les 06 UTC al 13 a les 08 UTC
Vent 20 kt del Est
Temporalment
l' 13 a les 06 UTC al 13 a les 18 UTC
Visibilitat: 3500 m
torb alta de pols
Evolucionant progressivament
l' 13 a les 18 UTC al 13 a les 20 UTC
Vent 8 kt del Est

TAF: OETF 122300Z 1300/1406 18010KT 5000 DU NSC BECMG 1306/1308 09020KT TEMPO 1306/1318 3500 BLDU BECMG 1318/1320 09008KT

Observacions i pronòstics meteorològics de més de 4000 aeroports (METAR i TAF).

Les estacions disponibles són els punts grocs i vermells al mapa.

Posi el ratolí al punt desitjat per veure el nom de l'estació.

Feu clic per veure les observacions i els pronòstics meteorològics.

Per canviar el mapa: feu clic els botons verds amb una creu de color negre per apropar; al botó verd amb un guió per allunyar la imatge; o en les fletxes verdes per a mapes adjacents.


METAR-TAF: